CYYJ/YYJ METAR and TAF weather

Enter ICAO airport designator
Station Type Date Time Source
CYYJ METAR 2019/10/20 18:00 UTC NOAA

CYYJ 201800Z 12011KT 12SM -RA SCT013 BKN019 BKN030 OVC056 09/09 A2990 RMK SC3SC3SC1SC1 SLP128


Station Type Date Time Source
CYYJ Decoded METAR 2019/10/20 18:00 UTC NOAA

Victoria Int. Airport, B. C., Canada (CYYJ) 48-39N 123-26W 19M
Oct 20, 2019 - 02:00 PM EDT / 2019.10.20 1800 UTC
Wind: from the ESE (120 degrees) at 13 MPH (11 KT):0
Visibility: 12 mile(s):0
Sky conditions: overcast
Weather: light rain
Temperature: 48 F (9 C)
Dew Point: 48 F (9 C)
Relative Humidity: 100%
Pressure (altimeter): 29.9 in. Hg (1012 hPa)
ob: CYYJ 201800Z 12011KT 12SM -RA SCT013 BKN019 BKN030 OVC056 09/09 A2990 RMK SC3SC3SC1SC1 SLP128
cycle: 18

Station Type Date Time Source
CYYJ TAF 2019/10/20 18:42 UTC NOAA

TAF CYYJ 201739Z 2018/2118 12008KT P6SM -RA SCT010 OVC030
TEMPO 2018/2022 14010G20KT 5SM -SHRA BR BKN009 OVC030
FM202200 25012G22KT P6SM SCT030 BKN240
TEMPO 2022/2110 BKN030
BECMG 2103/2105 25008KT
FM211000 22008KT P6SM SCT030 BKN120
FM211400 20010KT P6SM -RA SCT015 OVC050
FM211700 13012KT 2SM -RA BR BKN006 OVC012
RMK NXT FCST BY 210000Z

Example: see airport list